Time;durP1;ratioP1;P1;durP2;ratioP2;P2;SDS_P1;SDS_P2;PMS_P1;PMS_P2;Temp;Humidity;BMP_temperature;BMP_pressure;BME280_temperature;BME280_humidity;BME280_pressure;Samples;Min_cycle;Max_cycle;Signal;HPM_P1;HPM_P2
2023/06/04 00:02:03;;;;;;;3.13;2.30;;;13.30;99.90;;;;;;5021901;28;20533;-85
2023/06/04 00:04:30;;;;;;;2.23;2.03;;;13.50;99.10;;;;;;5020988;28;20500;-87
2023/06/04 00:06:57;;;;;;;2.73;2.30;;;13.30;99.90;;;;;;5004693;28;20448;-87
2023/06/04 00:09:24;;;;;;;3.03;2.40;;;13.50;95.80;;;;;;5017472;28;20452;-89
2023/06/04 00:11:51;;;;;;;2.17;1.97;;;13.50;95.80;;;;;;5016765;28;20473;-87
2023/06/04 00:14:18;;;;;;;2.83;2.53;;;13.60;95.80;;;;;;5009185;28;20449;-88
2023/06/04 00:16:46;;;;;;;3.03;2.30;;;13.60;96.80;;;;;;5004536;28;20468;-87
2023/06/04 00:19:13;;;;;;;4.70;2.20;;;13.50;96.60;;;;;;5020224;28;20456;-87
2023/06/04 00:21:40;;;;;;;2.40;1.90;;;13.40;96.40;;;;;;5007569;28;20469;-86
2023/06/04 00:24:07;;;;;;;2.27;2.07;;;13.40;92.00;;;;;;5001792;28;20449;-86
2023/06/04 00:26:34;;;;;;;2.87;2.27;;;13.50;99.90;;;;;;5001705;28;20540;-86
2023/06/04 00:29:02;;;;;;;1.90;1.80;;;13.30;97.40;;;;;;5005739;28;20967;-87
2023/06/04 00:31:28;;;;;;;3.13;2.30;;;13.50;99.90;;;;;;5004413;28;20493;-87
2023/06/04 00:33:57;;;;;;;7.37;2.00;;;13.40;98.40;;;;;;5011377;28;20417;-86
2023/06/04 00:36:23;;;;;;;3.67;3.30;;;13.40;98.40;;;;;;5002243;28;20448;-86
2023/06/04 00:38:50;;;;;;;4.60;3.10;;;13.30;98.60;;;;;;5003442;28;20457;-86
2023/06/04 00:41:17;;;;;;;3.93;2.50;;;13.30;99.10;;;;;;5011625;28;20481;-87
2023/06/04 00:43:45;;;;;;;5.10;2.13;;;13.20;99.00;;;;;;5009865;28;20484;-87
2023/06/04 00:46:17;;;;;;;2.40;2.20;;;13.40;99.90;;;;;;5004011;28;20468;-86
2023/06/04 00:48:44;;;;;;;2.17;1.97;;;13.20;99.90;;;;;;5002556;28;20804;-86
2023/06/04 00:51:13;;;;;;;4.03;2.13;;;13.20;99.90;;;;;;5001908;28;20932;-86
2023/06/04 00:53:40;;;;;;;3.40;1.97;;;;;;;;;;5001255;28;20548;-86
2023/06/04 00:56:07;;;;;;;2.90;2.10;;;12.90;95.50;;;;;;5001430;28;20453;-86
2023/06/04 00:58:38;;;;;;;2.50;2.17;;;12.80;99.90;;;;;;5001113;28;20470;-86
2023/06/04 01:01:08;;;;;;;3.93;2.13;;;12.30;99.90;;;;;;5000513;28;20917;-87
2023/06/04 01:03:39;;;;;;;2.30;1.90;;;12.80;99.90;;;;;;5001366;28;20449;-87
2023/06/04 01:06:21;;;;;;;2.30;1.70;;;12.70;99.90;;;;;;5005015;28;20437;-88
2023/06/04 01:08:51;;;;;;;3.60;2.40;;;12.70;99.90;;;;;;5005215;28;20539;-86
2023/06/04 01:11:17;;;;;;;2.50;2.17;;;12.80;99.90;;;;;;5001412;28;21029;-86
2023/06/04 01:13:44;;;;;;;2.07;1.87;;;12.80;99.90;;;;;;5005116;28;20448;-86
2023/06/04 01:16:14;;;;;;;2.50;1.90;;;12.80;99.90;;;;;;5008540;28;20452;-85
2023/06/04 01:18:42;;;;;;;2.40;1.73;;;12.70;99.90;;;;;;5007124;28;20457;-86
2023/06/04 01:21:12;;;;;;;4.77;2.10;;;12.50;99.90;;;;;;5003456;28;20507;-85
2023/06/04 01:23:47;;;;;;;1.90;1.80;;;12.50;99.90;;;;;;5000169;28;20441;-86
2023/06/04 01:26:14;;;;;;;3.30;2.10;;;12.50;99.90;;;;;;5000049;28;20573;-88
2023/06/04 01:28:42;;;;;;;3.83;1.90;;;12.60;99.90;;;;;;5000373;28;20511;-87
2023/06/04 01:31:10;;;;;;;5.30;1.90;;;12.70;99.90;;;;;;4999821;28;21009;-88
2023/06/04 01:33:37;;;;;;;2.40;2.20;;;12.40;99.90;;;;;;5020866;23;20912;-86
2023/06/04 01:36:06;;;;;;;2.23;2.03;;;12.40;99.90;;;;;;4998075;28;20977;-86
2023/06/04 01:38:32;;;;;;;2.23;2.07;;;12.30;99.90;;;;;;4997078;28;20453;-88
2023/06/04 01:41:01;;;;;;;1.90;1.50;;;12.20;99.90;;;;;;4996903;28;20528;-87
2023/06/04 01:43:28;;;;;;;3.23;2.20;;;12.00;99.90;;;;;;4996230;28;20475;-87
2023/06/04 01:45:56;;;;;;;2.20;2.00;;;12.00;99.90;;;;;;4996682;28;20452;-87
2023/06/04 01:48:23;;;;;;;2.30;2.10;;;11.90;99.90;;;;;;5004525;28;20433;-87
2023/06/04 01:50:50;;;;;;;2.40;2.20;;;12.00;99.90;;;;;;5018171;28;20544;-87
2023/06/04 01:53:17;;;;;;;1.80;1.70;;;12.00;99.90;;;;;;5018521;28;20532;-86
2023/06/04 01:55:44;;;;;;;4.73;1.83;;;12.00;99.90;;;;;;5017872;28;20488;-86
2023/06/04 01:58:12;;;;;;;2.13;2.03;;;12.20;99.90;;;;;;5011239;28;20463;-87
2023/06/04 02:00:39;;;;;;;3.40;3.03;;;12.40;99.90;;;;;;5000785;28;20812;-87
2023/06/04 02:03:06;;;;;;;2.03;1.90;;;12.20;99.90;;;;;;4999719;28;20477;-87
2023/06/04 02:05:32;;;;;;;2.97;2.23;;;12.00;99.90;;;;;;4996838;28;20828;-87
2023/06/04 02:08:01;;;;;;;3.00;2.00;;;11.90;99.90;;;;;;4997282;28;20531;-87
2023/06/04 02:10:28;;;;;;;2.10;1.90;;;11.70;99.90;;;;;;5004493;28;20488;-86
2023/06/04 02:12:58;;;;;;;2.13;2.03;;;11.80;99.90;;;;;;5013200;28;20473;-87
2023/06/04 02:15:27;;;;;;;2.50;1.97;;;11.60;99.90;;;;;;5006297;28;20480;-87
2023/06/04 02:17:58;;;;;;;1.87;1.67;;;11.60;99.90;;;;;;5018398;28;20496;-87
2023/06/04 02:20:24;;;;;;;5.60;1.97;;;11.60;99.90;;;;;;5019152;28;20417;-86
2023/06/04 02:22:51;;;;;;;2.23;2.07;;;11.50;99.90;;;;;;5019230;28;20472;-87
2023/06/04 02:25:18;;;;;;;2.50;2.00;;;11.40;99.90;;;;;;5013226;28;20460;-87
2023/06/04 02:27:45;;;;;;;8.07;2.13;;;11.30;99.90;;;;;;5008991;28;20451;-86
2023/06/04 02:30:12;;;;;;;3.13;1.90;;;11.30;99.90;;;;;;5004817;28;20440;-87
2023/06/04 02:32:40;;;;;;;7.53;2.00;;;11.30;99.90;;;;;;4999011;28;21106;-86
2023/06/04 02:35:08;;;;;;;2.70;1.80;;;11.40;99.90;;;;;;4996804;28;20514;-86
2023/06/04 02:37:34;;;;;;;3.10;1.97;;;11.40;99.90;;;;;;4997580;28;20551;-88
2023/06/04 02:40:01;;;;;;;4.00;1.90;;;11.00;99.90;;;;;;4997373;28;20829;-87
2023/06/04 02:42:28;;;;;;;2.43;2.00;;;11.20;99.90;;;;;;4996545;28;20468;-87
2023/06/04 02:44:55;;;;;;;4.63;2.30;;;11.20;99.90;;;;;;4999305;28;20847;-88
2023/06/04 02:47:22;;;;;;;1.70;1.60;;;11.20;99.90;;;;;;4997645;28;20516;-86
2023/06/04 02:49:50;;;;;;;2.77;2.30;;;11.20;99.90;;;;;;4996270;28;20475;-87
2023/06/04 02:52:17;;;;;;;2.00;1.90;;;11.30;99.90;;;;;;4995631;28;21091;-87
2023/06/04 02:54:43;;;;;;;2.17;1.90;;;11.20;99.90;;;;;;4995437;28;20532;-87
2023/06/04 02:57:10;;;;;;;3.63;2.37;;;11.30;99.90;;;;;;4996261;28;20832;-88
2023/06/04 02:59:37;;;;;;;2.97;2.67;;;11.30;99.90;;;;;;4995830;28;20459;-87
2023/06/04 03:02:05;;;;;;;2.23;2.03;;;11.20;99.90;;;;;;4998978;28;20465;-87
2023/06/04 03:04:34;;;;;;;2.53;2.30;;;11.20;99.90;;;;;;5002551;28;20503;-87
2023/06/04 03:07:02;;;;;;;3.70;2.23;;;11.20;99.90;;;;;;5004895;28;20519;-87
2023/06/04 03:09:30;;;;;;;1.70;1.60;;;11.10;99.90;;;;;;5005449;28;20508;-87
2023/06/04 03:12:00;;;;;;;4.33;2.10;;;11.20;99.90;;;;;;5000626;28;20492;-87
2023/06/04 03:14:31;;;;;;;2.40;2.20;;;11.20;99.90;;;;;;4997092;28;20433;-87
2023/06/04 03:17:00;;;;;;;2.20;2.00;;;11.20;99.90;;;;;;4995017;28;20434;-87
2023/06/04 03:19:28;;;;;;;4.20;1.87;;;11.20;99.90;;;;;;4995069;28;20503;-86
2023/06/04 03:21:56;;;;;;;3.13;2.50;;;11.30;99.90;;;;;;4994897;28;20839;-87
2023/06/04 03:24:25;;;;;;;2.80;1.80;;;11.40;99.90;;;;;;4995364;28;20489;-87
2023/06/04 03:26:51;;;;;;;2.77;2.50;;;11.40;99.90;;;;;;4994782;28;20456;-87
2023/06/04 03:29:18;;;;;;;2.53;2.10;;;11.40;99.90;;;;;;4995070;28;20532;-87
2023/06/04 03:31:45;;;;;;;3.30;2.67;;;11.40;99.90;;;;;;4998177;28;20515;-87
2023/06/04 03:34:12;;;;;;;2.73;2.50;;;11.50;99.90;;;;;;4999183;28;20492;-88
2023/06/04 03:36:39;;;;;;;2.70;2.47;;;11.30;99.90;;;;;;5000944;28;20441;-88
2023/06/04 03:39:06;;;;;;;4.07;2.60;;;11.30;99.90;;;;;;5009960;28;20452;-87
2023/06/04 03:41:34;;;;;;;4.13;2.13;;;11.70;99.90;;;;;;5003219;28;20476;-87
2023/06/04 03:44:01;;;;;;;2.83;2.40;;;11.60;99.90;;;;;;4998817;28;20833;-87
2023/06/04 03:46:31;;;;;;;3.33;2.40;;;11.60;99.90;;;;;;4999752;28;20485;-87
2023/06/04 03:48:58;;;;;;;1.93;1.83;;;11.50;99.90;;;;;;4998805;28;20448;-87
2023/06/04 03:51:25;;;;;;;2.50;2.03;;;11.60;99.90;;;;;;4999874;28;21014;-87
2023/06/04 03:53:52;;;;;;;4.60;2.00;;;11.70;99.90;;;;;;5006422;28;20437;-87
2023/06/04 03:56:39;;;;;;;2.30;1.70;;;11.80;99.90;;;;;;5022061;28;20448;-86
2023/06/04 03:59:06;;;;;;;4.00;1.83;;;11.60;99.90;;;;;;5021401;28;20437;-85
2023/06/04 04:01:33;;;;;;;3.80;2.03;;;12.10;99.90;;;;;;5021970;28;20449;-86
2023/06/04 04:04:00;;;;;;;2.03;1.83;;;11.70;99.90;;;;;;5021001;28;20463;-87
2023/06/04 04:06:27;;;;;;;5.43;2.40;;;12.10;99.90;;;;;;5021285;28;20445;-87
2023/06/04 04:08:53;;;;;;;3.10;1.80;;;11.90;99.90;;;;;;5019898;28;20445;-87
2023/06/04 04:11:20;;;;;;;2.57;2.00;;;12.00;99.90;;;;;;5019069;28;20484;-87
2023/06/04 04:13:49;;;;;;;3.03;2.03;;;12.00;99.90;;;;;;5012347;28;20464;-87
2023/06/04 04:16:15;;;;;;;2.77;2.30;;;12.00;99.90;;;;;;4999485;28;20543;-87
2023/06/04 04:18:43;;;;;;;2.73;2.30;;;12.00;99.90;;;;;;4998098;28;20445;-87
2023/06/04 04:21:11;;;;;;;3.80;2.30;;;12.10;99.90;;;;;;4998472;28;20444;-87
2023/06/04 04:23:39;;;;;;;5.03;2.07;;;12.10;99.90;;;;;;4998039;28;20476;-87
2023/06/04 04:26:06;;;;;;;3.10;1.80;;;12.10;99.90;;;;;;5003043;28;20479;-87
2023/06/04 04:28:34;;;;;;;2.20;2.10;;;12.20;99.90;;;;;;5003411;28;20520;-87
2023/06/04 04:31:02;;;;;;;4.13;2.50;;;12.20;99.90;;;;;;5003106;28;20484;-87
2023/06/04 04:33:32;;;;;;;3.17;2.40;;;12.20;99.90;;;;;;5003257;28;20540;-87
2023/06/04 04:36:00;;;;;;;2.50;2.03;;;12.20;99.90;;;;;;5003900;28;20448;-87
2023/06/04 04:38:28;;;;;;;4.00;2.00;;;12.30;99.90;;;;;;5002846;28;20444;-87
2023/06/04 04:40:55;;;;;;;2.40;2.20;;;12.30;99.90;;;;;;5016405;28;20209;-87
2023/06/04 04:43:30;;;;;;;7.73;2.80;;;12.30;99.90;;;;;;5015595;28;20469;-87
2023/06/04 04:45:57;;;;;;;3.97;2.33;;;12.30;99.90;;;;;;5009964;28;20515;-87
2023/06/04 04:48:25;;;;;;;4.47;2.37;;;12.40;99.90;;;;;;4998034;28;20518;-87
2023/06/04 04:50:52;;;;;;;2.90;1.97;;;12.40;99.90;;;;;;4997637;28;20468;-87
2023/06/04 04:53:19;;;;;;;2.93;1.90;;;12.40;99.90;;;;;;4997280;28;20548;-87
2023/06/04 04:55:46;;;;;;;2.10;2.00;;;12.40;99.90;;;;;;4997539;28;20536;-87
2023/06/04 04:58:14;;;;;;;3.57;2.07;;;12.40;99.90;;;;;;4997960;28;20455;-86
2023/06/04 05:00:40;;;;;;;2.93;2.10;;;12.50;99.90;;;;;;4997808;28;20535;-86
2023/06/04 05:03:07;;;;;;;3.80;2.10;;;12.60;99.90;;;;;;4997120;28;20464;-87
2023/06/04 05:05:35;;;;;;;2.20;2.00;;;12.70;99.90;;;;;;4996930;28;20449;-87
2023/06/04 05:08:02;;;;;;;3.77;2.23;;;12.60;99.90;;;;;;4997040;28;20459;-87
2023/06/04 05:10:29;;;;;;;3.33;2.30;;;12.70;99.90;;;;;;4998082;28;20544;-86
2023/06/04 05:12:58;;;;;;;2.50;2.30;;;12.90;99.90;;;;;;5003351;28;20485;-87
2023/06/04 05:15:26;;;;;;;3.03;2.73;;;12.70;99.90;;;;;;5003332;28;20449;-87
2023/06/04 05:17:53;;;;;;;3.27;1.97;;;12.70;99.90;;;;;;4997630;28;21061;-87
2023/06/04 05:20:22;;;;;;;3.30;2.40;;;12.80;99.90;;;;;;4997170;28;20463;-88
2023/06/04 05:22:51;;;;;;;3.00;2.47;;;13.20;99.90;;;;;;5010495;28;20449;-86
2023/06/04 05:25:18;;;;;;;9.37;2.53;;;13.10;99.90;;;;;;5018322;28;20425;-86
2023/06/04 05:27:48;;;;;;;4.87;2.03;;;13.20;99.90;;;;;;5007661;28;20464;-86
2023/06/04 05:30:16;;;;;;;2.63;2.37;;;13.30;99.90;;;;;;4999511;28;20437;-86
2023/06/04 05:32:43;;;;;;;3.57;2.30;;;;;;;;;;4998766;28;21057;-86
2023/06/04 05:35:10;;;;;;;3.40;2.27;;;13.50;99.90;;;;;;4998445;28;20543;-86
2023/06/04 05:37:40;;;;;;;5.27;2.07;;;13.60;99.90;;;;;;4997810;28;20452;-86
2023/06/04 05:40:10;;;;;;;2.10;2.00;;;13.70;99.90;;;;;;4997033;28;20460;-87
2023/06/04 05:42:37;;;;;;;2.83;2.40;;;13.70;99.90;;;;;;4996940;28;20469;-86
2023/06/04 05:45:05;;;;;;;3.10;2.60;;;13.70;99.90;;;;;;4996599;28;20796;-86
2023/06/04 05:47:31;;;;;;;2.20;1.90;;;13.80;99.90;;;;;;4996872;28;20572;-85
2023/06/04 05:49:58;;;;;;;6.63;2.90;;;13.90;99.90;;;;;;4997149;28;20878;-85
2023/06/04 05:52:25;;;;;;;2.33;2.00;;;13.90;99.90;;;;;;4996306;28;20497;-86
2023/06/04 05:54:52;;;;;;;5.70;2.20;;;14.10;99.90;;;;;;4997215;28;20560;-85
2023/06/04 05:57:23;;;;;;;3.83;2.00;;;14.10;99.90;;;;;;4997973;28;20832;-86
2023/06/04 05:59:50;;;;;;;2.40;2.20;;;14.20;99.90;;;;;;4996440;28;20537;-86
2023/06/04 06:02:17;;;;;;;5.03;2.57;;;14.30;99.90;;;;;;4996605;28;20483;-85
2023/06/04 06:04:44;;;;;;;2.60;2.00;;;14.40;99.90;;;;;;4996381;28;20456;-86
2023/06/04 06:07:11;;;;;;;2.77;1.90;;;14.50;99.90;;;;;;4996755;28;20543;-86
2023/06/04 06:09:38;;;;;;;3.10;1.77;;;14.50;99.90;;;;;;4995991;28;21047;-86
2023/06/04 06:12:06;;;;;;;7.27;1.93;;;14.50;99.90;;;;;;5009477;28;20482;-85
2023/06/04 06:14:35;;;;;;;2.30;1.73;;;14.60;99.90;;;;;;5008261;28;20448;-85
2023/06/04 06:17:03;;;;;;;4.73;3.20;;;14.80;99.90;;;;;;5016422;28;20472;-85
2023/06/04 06:19:30;;;;;;;2.87;2.23;;;14.90;99.90;;;;;;5019471;28;20464;-85
2023/06/04 06:21:58;;;;;;;2.60;2.10;;;14.90;99.90;;;;;;5019120;28;20477;-85
2023/06/04 06:24:25;;;;;;;4.77;2.00;;;15.00;99.90;;;;;;5004726;28;20578;-86
2023/06/04 06:26:52;;;;;;;2.37;2.20;;;15.10;99.90;;;;;;4998730;28;20487;-86
2023/06/04 06:29:19;;;;;;;2.00;1.80;;;15.30;99.90;;;;;;4997204;28;20449;-86
2023/06/04 06:31:47;;;;;;;6.87;4.43;;;15.80;99.90;;;;;;4997128;28;20486;-85
2023/06/04 06:34:14;;;;;;;5.63;2.77;;;15.50;99.90;;;;;;4997629;28;20445;-86
2023/06/04 06:36:41;;;;;;;3.10;2.27;;;15.50;99.90;;;;;;5006284;28;20460;-87
2023/06/04 06:39:08;;;;;;;3.20;2.10;;;15.60;99.90;;;;;;4997765;28;20831;-88
2023/06/04 06:41:35;;;;;;;2.60;1.40;;;16.00;99.90;;;;;;4998692;28;20536;-87
2023/06/04 06:44:02;;;;;;;4.60;1.60;;;15.80;99.90;;;;;;5004492;28;20543;-87
2023/06/04 06:46:29;;;;;;;3.33;1.83;;;16.00;99.90;;;;;;5009931;28;20480;-86
2023/06/04 06:48:57;;;;;;;6.03;1.90;;;15.90;99.90;;;;;;5000199;28;20952;-88
2023/06/04 06:51:24;;;;;;;5.03;2.00;;;16.00;99.90;;;;;;4998033;28;20820;-88
2023/06/04 06:53:51;;;;;;;1.77;1.67;;;16.10;99.90;;;;;;4996906;28;20476;-88
2023/06/04 06:56:37;;;;;;;1.83;1.73;;;16.40;99.90;;;;;;4997348;28;20449;-89
2023/06/04 06:59:04;;;;;;;1.80;1.40;;;16.20;99.90;;;;;;4996267;28;20443;-88
2023/06/04 07:01:32;;;;;;;1.97;1.30;;;16.40;99.90;;;;;;4999465;28;20454;-88
2023/06/04 07:04:00;;;;;;;1.30;1.20;;;16.40;99.90;;;;;;4998752;28;20467;-88
2023/06/04 07:06:27;;;;;;;1.90;1.33;;;16.50;99.90;;;;;;5003131;28;20480;-88
2023/06/04 07:08:54;;;;;;;2.37;1.17;;;16.50;99.90;;;;;;5001449;28;20826;-87
2023/06/04 07:11:21;;;;;;;2.13;1.70;;;;;;;;;;5000494;28;20543;-87
2023/06/04 07:13:48;;;;;;;1.40;1.30;;;16.70;99.90;;;;;;5011685;28;20489;-87
2023/06/04 07:16:16;;;;;;;1.37;1.27;;;16.80;99.90;;;;;;5017627;28;20452;-86
2023/06/04 07:18:45;;;;;;;3.23;1.27;;;16.90;99.90;;;;;;5022722;28;20447;-87
2023/06/04 07:21:13;;;;;;;3.80;2.60;;;16.90;99.90;;;;;;5022720;28;20453;-86
2023/06/04 07:23:40;;;;;;;5.63;3.70;;;17.00;99.90;;;;;;5022315;28;20461;-87
2023/06/04 07:26:07;;;;;;;2.23;1.63;;;17.10;99.90;;;;;;5022086;28;20463;-87
2023/06/04 07:28:34;;;;;;;1.50;1.40;;;17.20;99.90;;;;;;5022329;28;20431;-87
2023/06/04 07:31:02;;;;;;;2.60;1.40;;;17.20;99.90;;;;;;5020831;28;20479;-87
2023/06/04 07:33:29;;;;;;;1.50;1.30;;;17.20;99.90;;;;;;5019557;23;20504;-83
2023/06/04 07:35:56;;;;;;;1.57;1.43;;;17.30;99.90;;;;;;5002352;28;20499;-82
2023/06/04 07:38:24;;;;;;;1.20;1.10;;;17.30;99.90;;;;;;5002593;28;20495;-83
2023/06/04 07:40:51;;;;;;;3.20;1.20;;;17.20;99.90;;;;;;5003776;28;20448;-83
2023/06/04 07:43:18;;;;;;;1.30;1.10;;;17.30;99.90;;;;;;5002177;28;20995;-82
2023/06/04 07:45:45;;;;;;;3.33;1.50;;;17.40;99.90;;;;;;5002645;28;20467;-83
2023/06/04 07:48:12;;;;;;;1.13;1.03;;;17.50;99.90;;;;;;5003592;28;20463;-83
2023/06/04 07:50:39;;;;;;;1.60;1.50;;;17.90;99.90;;;;;;5002760;28;20459;-83
2023/06/04 07:53:06;;;;;;;1.70;1.20;;;17.70;99.90;;;;;;5006347;28;20512;-83
2023/06/04 07:55:35;;;;;;;1.40;1.30;;;17.70;99.90;;;;;;5005674;28;20545;-83
2023/06/04 07:58:02;;;;;;;1.67;1.17;;;17.70;99.90;;;;;;5008977;28;20449;-83
2023/06/04 08:00:29;;;;;;;2.97;1.30;;;17.70;99.90;;;;;;5007975;28;20441;-83
2023/06/04 08:02:56;;;;;;;2.90;1.03;;;17.80;99.90;;;;;;5014445;28;20460;-83
2023/06/04 08:05:24;;;;;;;1.40;1.10;;;17.80;99.90;;;;;;5013060;28;20463;-82
2023/06/04 08:07:50;;;;;;;1.20;1.10;;;17.80;99.90;;;;;;5015012;28;20459;-85
2023/06/04 08:10:17;;;;;;;2.27;1.57;;;17.90;99.90;;;;;;5009851;28;20448;-84
2023/06/04 08:12:46;;;;;;;3.43;1.10;;;17.90;99.90;;;;;;5005052;28;20553;-83
2023/06/04 08:15:12;;;;;;;2.50;1.00;;;17.90;99.90;;;;;;5002257;28;20452;-84
2023/06/04 08:17:39;;;;;;;8.23;1.33;;;17.90;99.90;;;;;;5002461;28;20516;-84
2023/06/04 08:20:08;;;;;;;1.57;1.33;;;18.00;99.90;;;;;;5002728;28;20448;-84
2023/06/04 08:22:35;;;;;;;2.47;1.47;;;18.00;99.90;;;;;;5004151;28;20594;-83
2023/06/04 08:25:03;;;;;;;1.30;1.00;;;18.10;99.90;;;;;;5007982;28;20467;-84
2023/06/04 08:27:30;;;;;;;1.40;1.30;;;18.00;99.90;;;;;;5005249;28;20849;-86
2023/06/04 08:29:58;;;;;;;1.30;0.83;;;18.10;99.90;;;;;;5004237;28;20503;-85
2023/06/04 08:32:25;;;;;;;2.40;0.90;;;18.20;99.90;;;;;;5017014;28;21019;-82
2023/06/04 08:34:52;;;;;;;8.37;1.33;;;18.50;99.90;;;;;;5007801;28;20931;-82
2023/06/04 08:37:19;;;;;;;1.40;1.30;;;18.20;99.90;;;;;;5001864;28;20960;-83
2023/06/04 08:39:46;;;;;;;0.90;0.80;;;18.30;99.90;;;;;;5003979;28;20453;-84
2023/06/04 08:42:27;;;;;;;2.00;1.47;;;18.30;99.90;;;;;;5012367;28;20496;-83
2023/06/04 08:44:54;;;;;;;1.53;1.00;;;18.40;99.90;;;;;;5016433;28;20433;-84
2023/06/04 08:47:24;;;;;;;2.70;1.00;;;18.50;99.90;;;;;;5006973;28;20854;-84
2023/06/04 08:49:52;;;;;;;2.23;1.30;;;18.50;99.90;;;;;;5005407;28;20432;-84
2023/06/04 08:52:21;;;;;;;7.30;1.33;;;18.60;99.90;;;;;;5003307;28;20488;-84
2023/06/04 08:54:50;;;;;;;1.67;1.13;;;18.50;99.90;;;;;;5003033;28;20952;-84
2023/06/04 08:57:19;;;;;;;2.93;1.40;;;18.40;99.90;;;;;;5002859;28;20449;-84
2023/06/04 08:59:46;;;;;;;2.23;1.47;;;18.40;99.90;;;;;;5003073;28;20461;-84
2023/06/04 09:02:13;;;;;;;1.67;1.33;;;18.50;99.90;;;;;;5003303;28;20492;-84
2023/06/04 09:04:42;;;;;;;3.07;1.00;;;18.60;99.90;;;;;;5004556;28;20487;-85
2023/06/04 09:07:10;;;;;;;1.87;1.13;;;18.60;99.90;;;;;;5007140;28;20505;-84
2023/06/04 09:09:40;;;;;;;1.20;0.90;;;18.70;99.90;;;;;;5004522;28;20487;-83
2023/06/04 09:12:11;;;;;;;1.20;1.03;;;18.80;99.90;;;;;;5004180;28;20497;-85
2023/06/04 09:14:38;;;;;;;3.27;2.03;;;18.80;99.90;;;;;;5003269;28;20444;-84
2023/06/04 09:17:05;;;;;;;4.27;1.20;;;18.90;99.90;;;;;;5002075;28;20451;-84
2023/06/04 09:19:32;;;;;;;2.10;1.40;;;18.90;99.90;;;;;;5002979;28;20845;-84
2023/06/04 09:22:02;;;;;;;2.07;0.97;;;19.40;99.90;;;;;;5003059;28;20290;-84
2023/06/04 09:24:41;;;;;;;2.40;1.10;;;19.10;99.90;;;;;;5002590;28;20488;-85
2023/06/04 09:27:11;;;;;;;4.13;1.60;;;19.20;99.90;;;;;;5001433;28;20855;-85
2023/06/04 09:29:38;;;;;;;1.73;1.63;;;19.30;99.90;;;;;;5002191;28;20414;-85
2023/06/04 09:32:06;;;;;;;4.20;1.60;;;19.60;99.90;;;;;;5014184;28;20435;-83
2023/06/04 09:34:32;;;;;;;2.13;1.20;;;19.40;99.90;;;;;;5001291;28;20477;-83
2023/06/04 09:37:00;;;;;;;1.60;1.30;;;19.50;99.90;;;;;;5000297;28;20461;-84
2023/06/04 09:39:27;;;;;;;1.37;1.27;;;19.50;99.90;;;;;;5002420;28;20483;-85
2023/06/04 09:42:01;;;;;;;1.77;1.37;;;19.40;99.90;;;;;;5005877;28;20453;-84
2023/06/04 09:44:30;;;;;;;2.07;1.40;;;19.60;99.90;;;;;;5010072;28;20441;-84
2023/06/04 09:46:57;;;;;;;1.70;1.37;;;19.60;99.90;;;;;;5014263;28;20445;-84
2023/06/04 09:49:24;;;;;;;4.00;2.37;;;19.50;99.90;;;;;;5007405;28;20540;-84
2023/06/04 09:51:51;;;;;;;5.10;3.57;;;19.90;99.90;;;;;;5006477;28;20480;-84
2023/06/04 09:54:19;;;;;;;7.10;5.17;;;19.70;99.90;;;;;;5005381;28;20568;-83
2023/06/04 09:56:46;;;;;;;2.33;2.13;;;20.10;99.90;;;;;;5004718;28;20451;-84
2023/06/04 09:59:15;;;;;;;3.37;1.50;;;19.90;99.90;;;;;;5004132;28;20461;-86
2023/06/04 10:01:42;;;;;;;1.63;1.53;;;19.90;99.90;;;;;;5005163;28;20449;-84
2023/06/04 10:04:11;;;;;;;1.20;1.10;;;19.90;99.90;;;;;;5005338;28;20496;-84
2023/06/04 10:06:40;;;;;;;3.00;2.40;;;19.90;99.90;;;;;;5002337;28;21018;-84
2023/06/04 10:09:08;;;;;;;2.17;1.87;;;20.00;99.90;;;;;;5001699;28;20463;-84
2023/06/04 10:11:41;;;;;;;1.53;1.30;;;20.00;99.90;;;;;;5005792;28;20856;-85
2023/06/04 10:14:15;;;;;;;1.20;1.10;;;20.00;99.90;;;;;;5006292;28;20491;-84
2023/06/04 10:16:43;;;;;;;4.93;2.10;;;20.10;99.90;;;;;;5003135;28;20939;-84
2023/06/04 10:19:11;;;;;;;2.97;1.80;;;20.00;99.90;;;;;;5008719;28;20637;-84
2023/06/04 10:21:38;;;;;;;3.77;1.60;;;20.10;99.90;;;;;;5002439;28;20764;-84
2023/06/04 10:24:06;;;;;;;6.50;1.90;;;20.10;99.90;;;;;;5001814;28;20532;-85
2023/06/04 10:26:35;;;;;;;1.40;1.10;;;20.20;99.90;;;;;;5001571;28;20467;-86
2023/06/04 10:29:03;;;;;;;1.53;1.37;;;20.20;99.90;;;;;;5001638;28;20449;-84
2023/06/04 10:31:30;;;;;;;1.70;1.57;;;20.20;99.90;;;;;;5001718;28;20445;-85
2023/06/04 10:33:57;;;;;;;1.83;1.60;;;19.90;99.90;;;;;;5003697;28;20571;-84
2023/06/04 10:36:25;;;;;;;2.33;1.30;;;20.00;99.90;;;;;;5013009;28;20504;-84
2023/06/04 10:38:54;;;;;;;2.47;1.30;;;20.00;99.90;;;;;;5000916;28;20799;-85
2023/06/04 10:41:22;;;;;;;1.40;1.30;;;20.10;99.90;;;;;;5001646;28;20453;-85
2023/06/04 10:43:51;;;;;;;5.30;1.70;;;20.20;99.90;;;;;;5007430;28;20469;-85
2023/06/04 10:46:20;;;;;;;1.20;1.10;;;20.30;99.90;;;;;;5013192;28;20448;-84
2023/06/04 10:48:48;;;;;;;2.70;1.33;;;20.40;99.90;;;;;;5013648;28;20536;-83
2023/06/04 10:51:16;;;;;;;2.63;2.10;;;20.40;99.90;;;;;;5010220;28;20480;-85
2023/06/04 10:53:43;;;;;;;2.13;1.83;;;20.50;99.90;;;;;;5001622;28;20579;-85
2023/06/04 10:56:10;;;;;;;2.27;1.67;;;20.50;99.90;;;;;;5001258;28;20449;-83
2023/06/04 10:58:37;;;;;;;1.70;1.60;;;20.60;99.90;;;;;;5000783;28;20445;-85
2023/06/04 11:01:04;;;;;;;1.67;1.20;;;20.60;99.90;;;;;;4998262;28;20993;-85
2023/06/04 11:03:39;;;;;;;4.93;1.43;;;20.80;99.90;;;;;;4995636;28;20814;-85
2023/06/04 11:06:17;;;;;;;3.60;1.50;;;20.60;99.90;;;;;;4995423;28;20483;-85
2023/06/04 11:08:44;;;;;;;3.90;1.40;;;20.70;99.90;;;;;;4996629;28;20436;-84
2023/06/04 11:11:15;;;;;;;1.83;1.30;;;20.80;99.90;;;;;;4997435;28;20484;-84
2023/06/04 11:13:42;;;;;;;1.83;1.63;;;20.80;99.90;;;;;;4998496;28;20491;-85
2023/06/04 11:16:16;;;;;;;2.37;1.90;;;20.80;99.90;;;;;;4999739;28;20459;-83
2023/06/04 11:18:54;;;;;;;2.37;1.70;;;20.80;99.90;;;;;;5000354;28;20452;-84
2023/06/04 11:21:21;;;;;;;3.20;1.33;;;21.00;99.90;;;;;;5010743;28;20513;-84
2023/06/04 11:23:48;;;;;;;1.47;1.37;;;20.70;99.90;;;;;;5004877;28;20465;-83
2023/06/04 11:26:15;;;;;;;3.00;1.13;;;20.50;99.90;;;;;;5001007;28;20483;-83
2023/06/04 11:28:42;;;;;;;1.80;1.50;;;20.80;99.90;;;;;;4999279;28;20459;-85
2023/06/04 11:31:09;;;;;;;1.50;1.40;;;20.80;99.90;;;;;;5005672;28;20425;-84
2023/06/04 11:33:44;;;;;;;1.33;1.17;;;20.70;99.90;;;;;;4999259;28;20492;-83
2023/06/04 11:36:11;;;;;;;3.30;2.77;;;20.80;99.90;;;;;;5009329;28;20459;-85
2023/06/04 11:38:38;;;;;;;1.33;1.23;;;20.80;99.90;;;;;;5005678;28;20449;-84
2023/06/04 11:41:06;;;;;;;2.37;1.17;;;20.80;99.90;;;;;;5004430;28;20535;-84
2023/06/04 11:43:34;;;;;;;1.73;1.30;;;20.80;99.90;;;;;;5005182;28;20465;-84
2023/06/04 11:46:06;;;;;;;1.90;1.77;;;20.80;99.90;;;;;;5015835;28;20497;-83
2023/06/04 11:48:34;;;;;;;2.60;1.40;;;20.80;99.90;;;;;;5006215;28;20492;-83
2023/06/04 11:51:09;;;;;;;5.13;1.40;;;20.80;99.90;;;;;;5003370;28;20480;-83
2023/06/04 11:53:37;;;;;;;3.43;1.50;;;20.90;99.90;;;;;;5008489;28;20520;-84
2023/06/04 11:56:05;;;;;;;3.17;1.47;;;20.90;99.90;;;;;;5004856;28;20535;-82
2023/06/04 11:58:33;;;;;;;5.80;3.53;;;20.90;99.90;;;;;;5005423;28;20456;-83
2023/06/04 12:01:00;;;;;;;2.23;2.03;;;20.90;99.90;;;;;;5005931;28;20932;-83
2023/06/04 12:03:37;;;;;;;1.80;1.70;;;21.00;99.90;;;;;;5004522;28;21022;-83
2023/06/04 12:06:13;;;;;;;2.22;1.05;;;21.00;99.90;;;;;;5003225;28;20491;-84
2023/06/04 12:08:47;;;;;;;2.30;1.60;;;21.10;99.90;;;;;;5003999;28;20205;-84
2023/06/04 12:11:27;;;;;;;1.57;1.47;;;21.20;99.90;;;;;;5004720;28;20906;-84
2023/06/04 12:13:54;;;;;;;2.93;2.17;;;21.30;99.90;;;;;;5004447;28;20499;-84
2023/06/04 12:16:21;;;;;;;3.10;2.20;;;21.30;99.90;;;;;;5004895;28;20467;-84
2023/06/04 12:18:49;;;;;;;3.10;2.10;;;21.40;99.90;;;;;;5003669;28;20449;-84
2023/06/04 12:21:26;;;;;;;5.50;1.43;;;21.50;99.90;;;;;;5003116;28;20456;-84
2023/06/04 12:23:54;;;;;;;2.00;1.90;;;21.50;99.90;;;;;;5002289;28;20551;-84
2023/06/04 12:26:28;;;;;;;2.50;1.80;;;21.50;99.90;;;;;;5002360;28;20451;-84
2023/06/04 12:29:02;;;;;;;3.53;1.20;;;21.50;99.90;;;;;;5002334;28;20428;-84
2023/06/04 12:31:35;;;;;;;2.60;1.30;;;21.60;99.90;;;;;;5007658;28;20975;-84
2023/06/04 12:34:02;;;;;;;2.53;1.23;;;21.50;99.90;;;;;;5004710;28;20492;-84
2023/06/04 12:36:30;;;;;;;3.43;3.10;;;21.60;99.90;;;;;;5005254;28;20544;-84
2023/06/04 12:39:00;;;;;;;2.80;2.17;;;21.50;99.90;;;;;;5011975;28;20455;-83
2023/06/04 12:41:27;;;;;;;1.60;1.50;;;21.60;99.90;;;;;;5008328;28;20441;-84
2023/06/04 12:43:54;;;;;;;3.50;1.67;;;21.60;99.90;;;;;;5007160;28;20481;-84
2023/06/04 12:46:21;;;;;;;4.10;2.20;;;21.70;99.90;;;;;;5003694;28;20448;-84
2023/06/04 12:48:48;;;;;;;2.30;1.63;;;21.70;99.90;;;;;;5003548;28;20836;-85
2023/06/04 12:51:15;;;;;;;1.40;1.00;;;21.60;99.90;;;;;;5006863;28;20457;-84
2023/06/04 12:53:43;;;;;;;1.40;1.20;;;21.70;99.90;;;;;;5004155;28;20492;-84